Time;durP1;ratioP1;P1;durP2;ratioP2;P2;SDS_P1;SDS_P2;PMS_P1;PMS_P2;Temp;Humidity;BMP_temperature;BMP_pressure;BME280_temperature;BME280_humidity;BME280_pressure;Samples;Min_cycle;Max_cycle;Signal;HPM_P1;HPM_P2
2023/04/02 00:00:56;;;;;;;47.55;31.55;;;7.40;99.90;;;;;;4888798;29;20104;-72
2023/04/02 00:03:22;;;;;;;44.42;31.00;;;7.50;99.90;;;;;;4898462;29;20032;-73
2023/04/02 00:05:51;;;;;;;41.90;28.90;;;7.50;99.90;;;;;;4914546;29;20144;-72
2023/04/02 00:08:24;;;;;;;41.20;27.17;;;7.50;99.90;;;;;;4955562;29;20030;-73
2023/04/02 00:10:50;;;;;;;40.92;26.65;;;7.50;99.90;;;;;;4955000;29;20076;-73
2023/04/02 00:13:16;;;;;;;40.42;27.77;;;7.50;99.90;;;;;;4956100;29;20062;-73
2023/04/02 00:15:45;;;;;;;37.95;26.77;;;7.50;99.90;;;;;;4951182;29;20110;-72
2023/04/02 00:18:17;;;;;;;36.42;24.35;;;7.50;99.90;;;;;;4944928;29;20030;-73
2023/04/02 00:21:12;;;;;;;38.47;26.52;;;7.50;99.90;;;;;;4955278;29;20387;-73
2023/04/02 00:23:40;;;;;;;35.58;24.08;;;7.50;99.90;;;;;;4939259;29;20023;-74
2023/04/02 00:26:28;;;;;;;31.23;21.33;;;7.40;99.90;;;;;;4955312;29;20055;-73
2023/04/02 00:28:54;;;;;;;34.42;21.80;;;7.30;99.90;;;;;;4938311;29;20035;-73
2023/04/02 00:31:20;;;;;;;36.10;22.52;;;7.30;99.90;;;;;;4970907;28;20395;-72
2023/04/02 00:33:48;;;;;;;38.65;23.27;;;7.20;99.90;;;;;;4956676;29;20506;-73
2023/04/02 00:36:14;;;;;;;37.53;25.35;;;7.20;99.90;;;;;;4958610;28;20023;-72
2023/04/02 00:38:42;;;;;;;35.63;22.13;;;7.10;99.90;;;;;;4956081;29;20035;-72
2023/04/02 00:41:15;;;;;;;37.15;22.95;;;7.10;99.90;;;;;;4955803;29;20027;-72
2023/04/02 00:43:45;;;;;;;33.80;22.38;;;7.10;99.90;;;;;;4954712;29;20050;-74
2023/04/02 00:46:24;;;;;;;35.85;21.38;;;7.00;99.90;;;;;;4944749;29;20435;-74
2023/04/02 00:48:58;;;;;;;29.85;19.27;;;7.00;99.90;;;;;;4956406;29;20090;-74
2023/04/02 00:51:40;;;;;;;25.65;16.88;;;7.00;99.90;;;;;;4953964;29;20048;-71
2023/04/02 00:54:14;;;;;;;26.20;15.85;;;7.00;99.90;;;;;;4948297;29;20440;-72
2023/04/02 00:56:49;;;;;;;25.90;17.48;;;7.00;99.90;;;;;;4938789;29;20085;-72
2023/04/02 00:59:29;;;;;;;26.88;14.63;;;6.90;99.90;;;;;;4966312;28;20399;-73
2023/04/02 01:02:16;;;;;;;22.77;14.07;;;6.90;99.90;;;;;;4956011;29;20130;-73
2023/04/02 01:04:53;;;;;;;23.08;14.70;;;7.00;99.90;;;;;;4942921;29;20565;-73
2023/04/02 01:07:31;;;;;;;25.95;16.23;;;6.90;99.90;;;;;;4954542;28;20045;-71
2023/04/02 01:10:05;;;;;;;23.73;12.93;;;6.90;99.90;;;;;;4955967;29;20514;-72
2023/04/02 01:12:49;;;;;;;18.83;11.55;;;6.80;99.90;;;;;;4955827;29;20396;-71
2023/04/02 01:15:32;;;;;;;22.80;14.20;;;6.80;99.90;;;;;;4946823;29;20027;-72
2023/04/02 01:18:00;;;;;;;22.08;14.27;;;6.90;99.90;;;;;;4935584;29;20028;-73
2023/04/02 01:20:42;;;;;;;20.23;11.55;;;6.90;99.90;;;;;;4951097;29;20041;-73
2023/04/02 01:23:15;;;;;;;18.55;12.20;;;6.90;99.90;;;;;;4955547;29;20494;-72
2023/04/02 01:26:07;;;;;;;22.33;11.95;;;6.90;99.90;;;;;;4937562;29;20098;-72
2023/04/02 01:28:56;;;;;;;20.35;11.80;;;6.90;99.90;;;;;;4950549;29;20463;-72
2023/04/02 01:31:22;;;;;;;20.20;11.60;;;6.90;99.90;;;;;;4938070;29;20078;-73
2023/04/02 01:33:48;;;;;;;18.67;10.95;;;7.00;99.90;;;;;;4955612;29;20390;-74
2023/04/02 01:36:26;;;;;;;21.38;12.55;;;7.00;99.90;;;;;;4969964;28;20499;-72
2023/04/02 01:39:27;;;;;;;21.63;11.30;;;7.00;99.90;;;;;;4954872;29;20031;-72
2023/04/02 01:42:22;;;;;;;16.42;10.02;;;6.90;99.90;;;;;;4914529;29;20071;-74
2023/04/02 01:44:58;;;;;;;19.10;10.55;;;6.80;99.90;;;;;;4858506;29;20391;-71
2023/04/02 01:47:26;;;;;;;16.75;9.93;;;6.90;99.90;;;;;;4843288;29;20033;-73
2023/04/02 01:49:56;;;;;;;20.55;11.40;;;6.80;99.90;;;;;;4858604;29;20041;-73
2023/04/02 01:52:37;;;;;;;16.50;9.48;;;6.80;99.90;;;;;;4858856;29;20649;-72
2023/04/02 01:55:04;;;;;;;24.75;13.60;;;6.80;99.90;;;;;;4858310;29;20048;-72
2023/04/02 01:57:30;;;;;;;22.33;12.57;;;6.70;99.90;;;;;;4858354;29;20045;-73
2023/04/02 01:59:57;;;;;;;23.92;14.75;;;6.70;99.90;;;;;;4858676;29;20085;-72
2023/04/02 02:02:23;;;;;;;25.65;17.25;;;6.70;99.90;;;;;;4858364;29;20124;-72
2023/04/02 02:04:49;;;;;;;27.80;18.52;;;6.80;99.90;;;;;;4858559;29;20146;-72
2023/04/02 02:07:19;;;;;;;26.98;18.65;;;6.80;99.90;;;;;;4858632;29;20026;-72
2023/04/02 02:09:49;;;;;;;29.27;19.33;;;6.90;99.90;;;;;;4858737;29;20064;-72
2023/04/02 02:12:15;;;;;;;28.23;19.70;;;7.00;99.90;;;;;;4842827;29;20056;-72
2023/04/02 02:14:49;;;;;;;26.77;17.60;;;7.10;99.90;;;;;;4858699;29;20037;-72
2023/04/02 02:17:26;;;;;;;27.60;16.52;;;7.10;99.90;;;;;;4858121;29;20120;-72
2023/04/02 02:19:55;;;;;;;24.58;15.60;;;7.10;99.90;;;;;;4877124;29;20128;-71
2023/04/02 02:22:24;;;;;;;28.15;17.77;;;7.20;99.90;;;;;;4953606;29;20051;-71
2023/04/02 02:24:50;;;;;;;32.53;21.17;;;7.10;99.90;;;;;;4936131;29;20040;-73
2023/04/02 02:27:22;;;;;;;34.33;20.70;;;7.20;99.90;;;;;;4948096;29;20023;-72
2023/04/02 02:30:10;;;;;;;35.08;21.90;;;7.20;99.90;;;;;;4950751;28;20135;-73
2023/04/02 02:32:41;;;;;;;34.20;20.88;;;7.20;99.90;;;;;;4942051;29;20047;-72
2023/04/02 02:35:18;;;;;;;30.52;17.52;;;7.20;99.90;;;;;;4952931;29;20029;-72
2023/04/02 02:37:50;;;;;;;36.65;20.20;;;7.10;99.90;;;;;;4936919;29;20387;-72
2023/04/02 02:40:22;;;;;;;30.20;19.33;;;7.10;99.90;;;;;;4969175;28;20039;-72
2023/04/02 02:42:53;;;;;;;32.55;20.25;;;7.00;99.90;;;;;;4952597;29;20055;-73
2023/04/02 02:45:25;;;;;;;27.75;16.58;;;7.00;99.90;;;;;;4953049;29;20027;-72
2023/04/02 02:47:53;;;;;;;28.60;18.20;;;7.00;99.90;;;;;;4968849;28;20039;-72
2023/04/02 02:50:31;;;;;;;27.90;17.30;;;7.00;99.90;;;;;;4952466;29;20038;-72
2023/04/02 02:53:06;;;;;;;25.60;17.10;;;6.90;99.90;;;;;;4968621;28;21066;-72
2023/04/02 02:55:36;;;;;;;25.30;14.35;;;6.90;99.90;;;;;;4953143;29;20023;-73
2023/04/02 02:58:16;;;;;;;21.48;13.65;;;6.90;99.90;;;;;;4952563;29;20035;-72
2023/04/02 03:00:56;;;;;;;22.75;14.50;;;6.90;99.90;;;;;;4936988;29;20027;-72
2023/04/02 03:03:27;;;;;;;26.05;15.05;;;6.80;99.90;;;;;;4936930;29;20420;-72
2023/04/02 03:06:04;;;;;;;24.42;14.25;;;6.70;99.90;;;;;;4952762;28;20378;-72
2023/04/02 03:08:42;;;;;;;23.85;13.32;;;6.70;99.90;;;;;;4952577;29;20118;-72
2023/04/02 03:11:36;;;;;;;23.98;13.82;;;6.60;99.90;;;;;;4936419;29;20030;-72
2023/04/02 03:14:34;;;;;;;21.45;12.98;;;6.60;99.90;;;;;;4878891;29;20052;-72
2023/04/02 03:17:17;;;;;;;20.15;12.18;;;6.60;99.90;;;;;;4787805;29;20517;-72
2023/04/02 03:19:53;;;;;;;19.67;12.27;;;6.70;99.90;;;;;;4791099;29;20142;-72
2023/04/02 03:22:42;;;;;;;19.17;12.32;;;6.70;99.90;;;;;;4798003;29;20030;-72
2023/04/02 03:25:24;;;;;;;22.13;12.50;;;6.60;99.90;;;;;;4798989;29;20046;-71
2023/04/02 03:27:57;;;;;;;18.67;12.18;;;6.70;99.90;;;;;;4799204;29;20046;-72
2023/04/02 03:30:44;;;;;;;28.73;19.08;;;6.70;99.90;;;;;;4816395;29;20058;-72
2023/04/02 03:33:25;;;;;;;52.58;32.75;;;6.70;99.90;;;;;;4800648;29;20426;-71
2023/04/02 03:36:02;;;;;;;60.15;36.63;;;6.70;99.90;;;;;;4801446;29;20045;-72
2023/04/02 03:38:39;;;;;;;34.78;22.25;;;6.80;99.90;;;;;;4793573;29;20499;-72
2023/04/02 03:41:18;;;;;;;28.02;16.45;;;6.80;99.90;;;;;;4814521;29;20053;-72
2023/04/02 03:43:52;;;;;;;26.65;16.35;;;6.70;99.90;;;;;;4808199;29;20054;-71
2023/04/02 03:46:23;;;;;;;26.23;15.35;;;6.60;99.90;;;;;;4793264;29;20411;-72
2023/04/02 03:48:55;;;;;;;25.30;15.02;;;6.60;99.90;;;;;;4798397;29;20091;-72
2023/04/02 03:51:28;;;;;;;24.27;14.98;;;6.60;99.90;;;;;;4837962;29;20081;-73
2023/04/02 03:53:55;;;;;;;;;;;6.50;99.90;;;;;;4902227;29;20039;-72
2023/04/02 03:56:38;;;;;;;18.42;11.65;;;6.50;99.90;;;;;;4958482;28;19906;-73
2023/04/02 03:59:25;;;;;;;21.85;11.32;;;6.50;99.90;;;;;;4958942;28;20065;-72
2023/04/02 04:02:18;;;;;;;19.55;9.43;;;6.50;99.90;;;;;;4958753;28;20027;-72
2023/04/02 04:04:46;;;;;;;17.63;9.73;;;6.50;99.90;;;;;;4958333;28;20110;-73
2023/04/02 04:07:31;;;;;;;17.83;10.27;;;6.50;99.90;;;;;;4942336;29;20034;-72
2023/04/02 04:09:59;;;;;;;19.90;10.00;;;6.50;99.90;;;;;;4948981;29;20465;-73
2023/04/02 04:12:39;;;;;;;15.75;9.32;;;6.60;99.90;;;;;;4960016;29;20129;-72
2023/04/02 04:15:39;;;;;;;20.10;11.15;;;6.60;99.90;;;;;;4974686;28;20126;-72
2023/04/02 04:18:04;;;;;;;20.25;11.10;;;6.70;99.90;;;;;;4954836;28;20039;-72
2023/04/02 04:20:47;;;;;;;21.07;11.97;;;6.80;99.90;;;;;;4958462;28;20035;-73
2023/04/02 04:23:30;;;;;;;18.63;9.57;;;6.80;99.90;;;;;;4956739;28;20277;-72
2023/04/02 04:26:08;;;;;;;17.40;9.63;;;6.80;99.90;;;;;;4940758;29;20066;-72
2023/04/02 04:29:04;;;;;;;17.13;8.93;;;6.80;99.90;;;;;;4958327;28;20036;-73
2023/04/02 04:31:53;;;;;;;17.75;8.50;;;6.80;99.90;;;;;;4956429;28;20039;-73
2023/04/02 04:34:31;;;;;;;16.48;8.75;;;7.10;99.90;;;;;;4953431;29;20182;-73
2023/04/02 04:37:00;;;;;;;15.13;9.10;;;7.90;99.90;;;;;;4939943;29;20019;-73
2023/04/02 04:39:48;;;;;;;18.58;9.85;;;8.50;99.90;;;;;;4955362;28;20498;-73
2023/04/02 04:42:20;;;;;;;19.13;9.43;;;9.30;99.90;;;;;;4966232;28;20031;-72
2023/04/02 04:44:59;;;;;;;18.48;10.60;;;9.20;99.90;;;;;;4933977;29;20416;-72
2023/04/02 04:47:32;;;;;;;16.65;9.55;;;8.90;99.90;;;;;;4939380;29;20027;-74
2023/04/02 04:50:20;;;;;;;19.85;11.30;;;8.80;99.90;;;;;;4956009;29;20039;-72
2023/04/02 04:52:46;;;;;;;21.02;11.32;;;8.70;99.90;;;;;;4938100;29;20043;-72
2023/04/02 04:55:28;;;;;;;27.33;13.57;;;8.70;99.90;;;;;;4967730;28;20025;-72
2023/04/02 04:58:22;;;;;;;19.70;10.55;;;9.20;99.90;;;;;;4936025;29;20035;-72
2023/04/02 05:01:06;;;;;;;15.40;9.93;;;10.80;99.90;;;;;;4954506;28;20035;-71
2023/04/02 05:03:47;;;;;;;20.73;11.88;;;10.40;99.90;;;;;;4969298;28;20403;-72
2023/04/02 05:06:43;;;;;;;20.85;10.60;;;10.00;99.90;;;;;;4953464;29;20023;-72
2023/04/02 05:09:29;;;;;;;32.35;19.65;;;9.70;99.90;;;;;;4954561;29;20506;-72
2023/04/02 05:12:33;;;;;;;34.75;22.05;;;9.60;99.90;;;;;;4970448;28;20039;-71
2023/04/02 05:15:17;;;;;;;22.95;13.57;;;9.50;99.90;;;;;;4951614;29;20156;-71
2023/04/02 05:17:58;;;;;;;24.60;15.10;;;9.50;99.90;;;;;;4922440;29;20395;-72
2023/04/02 05:20:32;;;;;;;23.50;13.85;;;9.30;99.90;;;;;;4954459;29;20495;-71
2023/04/02 05:23:15;;;;;;;22.77;13.20;;;9.20;99.90;;;;;;4946826;29;20067;-71
2023/04/02 05:26:03;;;;;;;18.35;11.00;;;9.10;99.90;;;;;;4953023;29;20090;-72
2023/04/02 05:28:50;;;;;;;16.73;9.93;;;9.00;99.90;;;;;;4954116;29;20110;-73
2023/04/02 05:31:29;;;;;;;22.83;12.07;;;8.90;99.90;;;;;;4941181;29;20555;-72
2023/04/02 05:33:56;;;;;;;20.23;12.20;;;8.80;99.90;;;;;;4938341;29;20023;-74
2023/04/02 05:36:26;;;;;;;22.02;12.10;;;8.80;99.90;;;;;;4954504;28;20396;-74
2023/04/02 05:38:57;;;;;;;21.63;12.00;;;8.90;99.90;;;;;;4923974;29;20165;-73
2023/04/02 05:41:42;;;;;;;17.27;9.85;;;8.90;99.90;;;;;;4967954;28;20086;-73
2023/04/02 05:44:34;;;;;;;21.55;10.50;;;8.90;99.90;;;;;;4954415;29;20105;-72
2023/04/02 05:47:17;;;;;;;18.50;9.10;;;8.90;99.90;;;;;;4937915;29;20059;-73
2023/04/02 05:50:11;;;;;;;15.60;8.05;;;8.80;99.90;;;;;;4952497;28;20027;-74
2023/04/02 05:52:48;;;;;;;11.32;6.30;;;8.90;99.90;;;;;;4953496;29;20094;-74
2023/04/02 05:55:15;;;;;;;11.27;5.90;;;8.90;99.90;;;;;;4955572;28;20024;-73
2023/04/02 05:57:53;;;;;;;12.75;6.05;;;8.90;99.90;;;;;;4969967;28;20039;-73
2023/04/02 06:00:39;;;;;;;22.05;11.52;;;8.90;99.90;;;;;;4952715;29;21280;-73
2023/04/02 06:03:28;;;;;;;30.23;17.80;;;9.00;99.90;;;;;;4934800;29;20027;-73
2023/04/02 06:06:00;;;;;;;34.22;18.73;;;9.10;99.90;;;;;;4950065;29;20063;-75
2023/04/02 06:08:37;;;;;;;23.45;12.77;;;9.10;99.90;;;;;;4937728;29;20123;-74
2023/04/02 06:11:11;;;;;;;20.45;9.50;;;9.10;99.90;;;;;;4953721;28;20129;-74
2023/04/02 06:13:39;;;;;;;19.75;11.13;;;9.10;99.90;;;;;;4937555;29;20499;-74
2023/04/02 06:16:06;;;;;;;20.52;9.95;;;9.30;99.90;;;;;;4951948;29;20050;-74
2023/04/02 06:18:35;;;;;;;20.77;11.75;;;9.30;99.90;;;;;;4953486;29;20430;-73
2023/04/02 06:21:03;;;;;;;18.63;9.40;;;9.30;99.90;;;;;;4937625;29;20030;-74
2023/04/02 06:23:41;;;;;;;12.60;6.93;;;9.30;99.90;;;;;;4953306;29;20383;-73
2023/04/02 06:26:17;;;;;;;16.65;7.88;;;9.50;99.90;;;;;;4937570;29;20082;-73
2023/04/02 06:29:08;;;;;;;15.60;8.32;;;9.50;99.90;;;;;;4953602;29;20479;-73
2023/04/02 06:31:55;;;;;;;23.65;9.40;;;9.70;99.90;;;;;;4953392;29;20087;-74
2023/04/02 06:34:28;;;;;;;15.80;9.27;;;9.70;99.90;;;;;;4937386;29;20034;-73
2023/04/02 06:37:23;;;;;;;15.90;9.80;;;9.90;99.90;;;;;;4952769;29;20039;-73
2023/04/02 06:39:56;;;;;;;22.80;10.65;;;10.00;99.90;;;;;;4936784;29;20411;-73
2023/04/02 06:42:32;;;;;;;17.80;10.25;;;10.10;99.90;;;;;;4951466;29;20056;-73
2023/04/02 06:45:22;;;;;;;18.98;10.70;;;10.30;99.90;;;;;;4933395;29;20023;-73
2023/04/02 06:47:56;;;;;;;14.63;8.02;;;10.50;99.90;;;;;;4948357;29;20031;-73
2023/04/02 06:50:55;;;;;;;15.75;7.97;;;10.60;99.90;;;;;;4947381;29;20035;-73
2023/04/02 06:53:31;;;;;;;13.63;8.82;;;10.70;99.90;;;;;;4938882;29;20087;-73
2023/04/02 06:56:14;;;;;;;11.80;6.93;;;10.80;99.90;;;;;;4936720;29;20031;-73
2023/04/02 06:58:40;;;;;;;13.20;8.02;;;11.00;99.90;;;;;;4936612;29;20043;-73
2023/04/02 07:01:06;;;;;;;16.38;6.95;;;11.10;99.90;;;;;;4952382;29;20031;-73
2023/04/02 07:03:40;;;;;;;10.52;6.15;;;11.50;99.90;;;;;;4934614;29;20042;-73
2023/04/02 07:06:20;;;;;;;7.95;5.35;;;12.00;99.90;;;;;;4936571;29;20399;-73
2023/04/02 07:08:49;;;;;;;13.90;5.30;;;12.10;99.90;;;;;;4952315;29;20059;-72
2023/04/02 07:11:20;;;;;;;11.80;5.25;;;12.00;99.90;;;;;;4952520;28;20019;-73
2023/04/02 07:13:48;;;;;;;12.48;5.63;;;12.00;99.90;;;;;;4936409;29;20035;-73
2023/04/02 07:16:20;;;;;;;9.88;4.97;;;12.30;99.90;;;;;;4939633;29;20030;-73
2023/04/02 07:18:47;;;;;;;8.95;4.65;;;12.40;99.90;;;;;;4933954;29;20051;-72
2023/04/02 07:21:13;;;;;;;9.20;5.25;;;12.60;99.90;;;;;;4936365;29;20035;-72
2023/04/02 07:23:40;;;;;;;7.32;4.00;;;12.90;99.90;;;;;;4952706;29;20048;-72
2023/04/02 07:26:11;;;;;;;5.95;3.65;;;13.10;99.90;;;;;;4953930;29;20019;-73
2023/04/02 07:28:37;;;;;;;7.80;4.30;;;13.20;99.90;;;;;;4952040;29;20357;-73
2023/04/02 07:31:08;;;;;;;9.05;4.50;;;13.40;99.90;;;;;;4953996;29;20030;-73
2023/04/02 07:33:34;;;;;;;7.95;3.80;;;13.30;99.90;;;;;;4951289;29;20051;-72
2023/04/02 07:35:59;;;;;;;6.32;3.33;;;13.40;99.90;;;;;;4947282;29;20374;-72
2023/04/02 07:38:25;;;;;;;7.72;3.58;;;13.60;99.90;;;;;;4953363;29;20031;-72
2023/04/02 07:40:51;;;;;;;9.73;4.35;;;13.90;99.90;;;;;;4952997;29;20058;-73
2023/04/02 07:43:17;;;;;;;6.47;4.18;;;14.10;99.90;;;;;;4952428;29;20071;-73
2023/04/02 07:45:43;;;;;;;4.88;2.92;;;14.10;99.90;;;;;;4949557;29;20078;-73
2023/04/02 07:48:13;;;;;;;4.93;2.50;;;14.40;99.90;;;;;;4950052;29;20027;-73
2023/04/02 07:50:39;;;;;;;3.38;2.20;;;14.50;99.90;;;;;;4953646;28;20035;-73
2023/04/02 07:53:07;;;;;;;3.78;1.55;;;14.50;99.90;;;;;;4953100;29;20042;-73
2023/04/02 07:55:33;;;;;;;3.25;1.90;;;14.50;99.90;;;;;;4953015;29;20023;-73
2023/04/02 07:57:59;;;;;;;6.47;2.20;;;14.30;99.00;;;;;;4953274;29;20035;-72
2023/04/02 08:00:26;;;;;;;3.63;2.10;;;14.50;99.90;;;;;;4953248;29;20487;-72
2023/04/02 08:02:52;;;;;;;2.33;1.70;;;14.30;99.90;;;;;;4953700;29;20047;-72
2023/04/02 08:05:18;;;;;;;2.35;1.17;;;14.50;99.90;;;;;;4953149;29;20391;-71
2023/04/02 08:07:54;;;;;;;4.97;2.20;;;14.40;99.90;;;;;;4953486;29;20039;-72
2023/04/02 08:10:20;;;;;;;5.15;1.85;;;14.40;99.90;;;;;;4952859;29;20054;-73
2023/04/02 08:12:46;;;;;;;5.82;1.80;;;14.50;99.90;;;;;;4952767;29;20162;-73
2023/04/02 08:15:14;;;;;;;3.00;1.63;;;14.60;99.90;;;;;;4956950;28;20113;-73
2023/04/02 08:17:41;;;;;;;3.67;1.92;;;14.60;99.90;;;;;;4956752;29;20024;-74
2023/04/02 08:20:16;;;;;;;4.22;1.70;;;14.50;97.40;;;;;;4956955;29;20038;-73
2023/04/02 08:22:44;;;;;;;2.40;1.73;;;14.70;99.90;;;;;;4953594;28;20031;-73
2023/04/02 08:25:10;;;;;;;3.22;1.80;;;14.80;98.60;;;;;;4937508;29;20039;-73
2023/04/02 08:27:36;;;;;;;4.03;2.05;;;14.80;99.90;;;;;;4956561;29;20026;-73
2023/04/02 08:30:02;;;;;;;4.28;2.60;;;15.00;99.90;;;;;;4956140;29;20364;-73
2023/04/02 08:32:28;;;;;;;6.05;2.75;;;15.20;99.90;;;;;;4954664;29;20074;-73
2023/04/02 08:34:54;;;;;;;3.83;2.47;;;15.30;99.90;;;;;;4946155;29;20479;-72
2023/04/02 08:37:20;;;;;;;5.00;2.63;;;15.50;99.90;;;;;;4956430;29;20023;-73
2023/04/02 08:39:46;;;;;;;5.25;2.53;;;15.70;99.90;;;;;;4947185;29;20361;-73
2023/04/02 08:42:31;;;;;;;3.38;2.35;;;15.90;99.90;;;;;;4959970;28;20450;-73
2023/04/02 08:45:05;;;;;;;7.70;2.65;;;15.50;99.90;;;;;;4974406;28;20379;-73
2023/04/02 08:47:35;;;;;;;3.28;2.20;;;15.60;99.90;;;;;;4975242;28;20378;-73
2023/04/02 08:50:14;;;;;;;3.10;2.22;;;15.90;99.90;;;;;;4975685;28;20526;-73
2023/04/02 08:52:40;;;;;;;3.97;2.80;;;16.10;99.90;;;;;;4973407;28;20399;-73
2023/04/02 08:55:36;;;;;;;5.22;2.95;;;16.00;99.60;;;;;;4962999;28;20022;-73
2023/04/02 08:58:19;;;;;;;4.30;2.58;;;16.00;99.20;;;;;;4973011;28;20394;-73
2023/04/02 09:00:47;;;;;;;6.15;2.75;;;16.10;99.90;;;;;;4974472;28;20027;-72
2023/04/02 09:03:13;;;;;;;3.47;2.30;;;16.30;99.90;;;;;;4963335;28;20380;-73
2023/04/02 09:05:42;;;;;;;4.85;2.42;;;16.20;96.60;;;;;;4973851;28;20027;-73
2023/04/02 09:08:26;;;;;;;5.53;1.60;;;16.20;97.60;;;;;;4968719;28;20023;-73
2023/04/02 09:11:07;;;;;;;2.25;1.73;;;16.10;97.70;;;;;;4970640;28;20027;-74
2023/04/02 09:13:37;;;;;;;4.53;2.28;;;16.10;99.20;;;;;;4967446;28;20145;-74
2023/04/02 09:16:11;;;;;;;3.13;1.65;;;15.90;97.80;;;;;;4975115;28;20526;-72
2023/04/02 09:18:38;;;;;;;3.35;2.13;;;16.10;96.10;;;;;;4973606;28;20570;-73
2023/04/02 09:21:20;;;;;;;3.25;2.00;;;16.00;97.90;;;;;;4973402;28;20134;-74
2023/04/02 09:23:47;;;;;;;4.57;1.77;;;15.90;96.40;;;;;;4966170;28;20055;-74
2023/04/02 09:26:24;;;;;;;2.35;1.40;;;15.90;95.60;;;;;;4974372;28;20034;-73
2023/04/02 09:28:54;;;;;;;3.08;2.08;;;15.70;94.90;;;;;;4974252;28;20026;-72
2023/04/02 09:31:33;;;;;;;4.22;1.95;;;15.60;96.40;;;;;;4974911;28;20031;-71
2023/04/02 09:33:59;;;;;;;3.63;2.13;;;15.60;98.30;;;;;;4966358;28;20550;-72
2023/04/02 09:36:37;;;;;;;4.25;2.10;;;15.80;99.90;;;;;;4972620;28;20035;-73
2023/04/02 09:39:18;;;;;;;4.68;2.10;;;15.80;99.50;;;;;;4971092;28;20055;-71
2023/04/02 09:41:46;;;;;;;3.35;2.03;;;15.90;99.90;;;;;;4962624;28;20048;-73
2023/04/02 09:44:24;;;;;;;2.78;1.90;;;16.00;99.40;;;;;;4972527;28;21301;-74
2023/04/02 09:46:58;;;;;;;4.25;2.03;;;16.30;99.90;;;;;;4974568;28;20102;-74
2023/04/02 09:49:34;;;;;;;3.60;2.15;;;16.40;97.50;;;;;;4974343;28;20042;-73
2023/04/02 09:52:24;;;;;;;3.65;1.90;;;16.30;98.50;;;;;;4972082;28;20046;-73
2023/04/02 09:55:29;;;;;;;4.88;2.55;;;16.50;94.60;;;;;;4974528;28;20031;-74
2023/04/02 09:58:15;;;;;;;3.92;1.88;;;16.50;97.00;;;;;;4895677;29;20141;-74
2023/04/02 10:00:52;;;;;;;3.80;1.98;;;16.70;94.90;;;;;;4896059;29;20037;-74
2023/04/02 10:03:27;;;;;;;4.90;2.70;;;16.70;97.30;;;;;;4896019;29;20044;-72
2023/04/02 10:06:27;;;;;;;2.85;1.73;;;16.50;95.40;;;;;;4895978;29;20029;-73
2023/04/02 10:08:53;;;;;;;2.22;1.33;;;16.60;97.60;;;;;;4858692;29;20077;-75
2023/04/02 10:11:32;;;;;;;2.38;1.65;;;16.60;95.80;;;;;;4858380;29;20038;-72
2023/04/02 10:14:24;;;;;;;1.95;1.50;;;16.60;94.60;;;;;;4858549;29;20543;-72
2023/04/02 10:16:56;;;;;;;3.03;1.77;;;16.60;96.00;;;;;;4857330;29;20045;-73
2023/04/02 10:19:31;;;;;;;2.60;1.77;;;16.70;95.90;;;;;;4858233;29;20102;-74
2023/04/02 10:22:00;;;;;;;2.10;1.30;;;16.60;95.00;;;;;;4852285;29;20073;-72
2023/04/02 10:24:27;;;;;;;2.97;1.38;;;16.20;95.30;;;;;;4850908;29;20046;-74
2023/04/02 10:26:58;;;;;;;2.58;1.23;;;16.40;95.50;;;;;;4856154;29;20396;-74
2023/04/02 10:29:40;;;;;;;1.48;1.10;;;16.60;96.30;;;;;;4857600;29;20061;-74
2023/04/02 10:32:45;;;;;;;2.05;1.15;;;16.60;97.60;;;;;;4847000;29;20441;-76
2023/04/02 10:36:00;;;;;;;1.30;1.20;;;16.70;95.40;;;;;;4913063;29;20463;-76
2023/04/02 10:38:37;;;;;;;1.38;1.08;;;17.00;96.70;;;;;;4856757;29;20042;-76
2023/04/02 10:41:36;;;;;;;1.60;0.95;;;17.10;95.70;;;;;;4857506;29;20487;-76
2023/04/02 10:44:16;;;;;;;1.75;1.15;;;17.20;96.60;;;;;;4815896;29;20399;-75
2023/04/02 10:46:52;;;;;;;1.65;1.40;;;16.90;95.00;;;;;;4820889;29;20457;-75
2023/04/02 10:49:24;;;;;;;1.08;0.80;;;16.70;95.60;;;;;;4820864;29;20047;-76
2023/04/02 10:52:04;;;;;;;2.10;1.55;;;16.90;95.80;;;;;;4820967;29;20084;-72
2023/04/02 10:54:42;;;;;;;1.75;1.17;;;17.10;94.50;;;;;;4821107;29;20118;-74
2023/04/02 10:57:22;;;;;;;2.25;0.80;;;17.10;91.20;;;;;;4821273;29;20039;-75
2023/04/02 10:59:56;;;;;;;0.57;0.57;;;17.00;91.60;;;;;;4820526;29;20079;-75
2023/04/02 11:02:31;;;;;;;2.15;1.00;;;17.20;93.40;;;;;;4823384;29;20030;-71
2023/04/02 11:05:00;;;;;;;2.15;1.00;;;17.40;94.20;;;;;;4821023;29;20056;-74
2023/04/02 11:07:29;;;;;;;3.10;0.98;;;17.20;92.80;;;;;;4829476;29;20038;-72
2023/04/02 11:09:57;;;;;;;1.05;0.90;;;17.10;92.10;;;;;;4818035;29;20084;-74
2023/04/02 11:12:45;;;;;;;1.63;1.00;;;17.30;92.30;;;;;;4848044;29;20513;-73
2023/04/02 11:15:16;;;;;;;1.25;0.88;;;17.40;90.30;;;;;;4893187;29;21801;-72
2023/04/02 11:17:44;;;;;;;1.55;1.27;;;17.20;92.40;;;;;;4893890;29;20032;-71
2023/04/02 11:20:47;;;;;;;4.13;0.70;;;17.00;92.90;;;;;;4923383;28;20043;-76
2023/04/02 11:23:17;;;;;;;1.23;0.90;;;16.90;91.80;;;;;;4971172;28;20031;-72
2023/04/02 11:25:44;;;;;;;2.28;1.20;;;16.90;91.80;;;;;;4967874;28;20483;-74
2023/04/02 11:28:25;;;;;;;1.58;1.02;;;17.00;92.40;;;;;;4970016;28;20142;-75
2023/04/02 11:30:52;;;;;;;1.45;0.75;;;17.00;92.80;;;;;;4968803;28;20511;-73
2023/04/02 11:33:40;;;;;;;0.63;0.63;;;17.20;91.00;;;;;;4971616;28;20038;-75
2023/04/02 11:36:43;;;;;;;1.60;1.00;;;17.50;90.70;;;;;;4969124;28;20023;-74
2023/04/02 11:39:09;;;;;;;;;;;17.70;92.30;;;;;;4968592;28;20530;-74
2023/04/02 11:41:54;;;;;;;4.22;1.88;;;18.20;92.40;;;;;;4971465;28;19917;-73
2023/04/02 11:44:23;;;;;;;1.40;1.00;;;18.40;91.40;;;;;;4972796;28;20031;-74
2023/04/02 11:46:50;;;;;;;1.67;1.00;;;18.40;90.40;;;;;;4972889;28;20062;-73
2023/04/02 11:49:32;;;;;;;2.47;1.52;;;18.50;90.60;;;;;;4973303;28;20027;-73
2023/04/02 11:51:58;;;;;;;4.00;1.30;;;18.70;90.90;;;;;;4975659;28;20041;-76
2023/04/02 11:54:28;;;;;;;1.23;0.88;;;18.70;91.00;;;;;;4972678;28;20406;-73
2023/04/02 11:57:21;;;;;;;2.53;1.02;;;18.60;90.40;;;;;;4977163;28;20026;-75
2023/04/02 12:00:06;;;;;;;0.75;0.60;;;18.10;89.20;;;;;;4976350;28;20038;-75
2023/04/02 12:02:52;;;;;;;1.75;1.00;;;17.70;90.00;;;;;;4976908;28;20033;-75
2023/04/02 12:05:25;;;;;;;3.25;1.30;;;17.50;90.50;;;;;;4977108;28;20034;-75
2023/04/02 12:07:57;;;;;;;2.47;1.30;;;17.20;92.60;;;;;;4976562;28;20027;-75
2023/04/02 12:10:56;;;;;;;3.38;1.75;;;17.20;92.70;;;;;;4976276;28;20035;-75
2023/04/02 12:13:41;;;;;;;2.38;1.40;;;16.80;93.30;;;;;;4965105;28;20067;-75
2023/04/02 12:16:09;;;;;;;3.75;1.60;;;16.70;93.90;;;;;;4965133;28;20050;-74
2023/04/02 12:18:42;;;;;;;3.63;1.50;;;16.70;93.30;;;;;;4976203;28;20038;-73
2023/04/02 12:21:16;;;;;;;1.52;1.10;;;16.70;93.70;;;;;;4976588;28;20039;-75
2023/04/02 12:23:46;;;;;;;4.43;1.73;;;16.50;94.20;;;;;;4975971;28;20547;-75
2023/04/02 12:26:45;;;;;;;1.35;1.10;;;16.70;93.90;;;;;;4976487;28;20038;-75
2023/04/02 12:29:19;;;;;;;6.30;1.05;;;16.70;93.30;;;;;;4898083;29;20514;-75
2023/04/02 12:31:46;;;;;;;2.55;1.30;;;16.90;92.00;;;;;;4897457;29;20104;-75
2023/04/02 12:34:15;;;;;;;1.55;0.85;;;16.90;92.30;;;;;;4897541;29;20032;-75
2023/04/02 12:36:54;;;;;;;2.42;1.40;;;17.00;91.10;;;;;;4897490;29;20093;-75
2023/04/02 12:39:20;;;;;;;3.13;1.33;;;17.00;92.60;;;;;;4897401;29;20041;-73
2023/04/02 12:41:46;;;;;;;1.58;0.77;;;17.00;91.80;;;;;;4897164;29;20036;-75
2023/04/02 12:44:20;;;;;;;2.15;1.20;;;16.80;90.50;;;;;;4897206;29;20131;-72
2023/04/02 12:46:46;;;;;;;1.90;1.00;;;16.80;90.80;;;;;;4896953;29;20088;-72
2023/04/02 12:49:31;;;;;;;0.60;0.60;;;16.50;92.10;;;;;;4897548;29;20036;-74
2023/04/02 12:52:00;;;;;;;6.45;2.33;;;16.60;91.10;;;;;;4897108;29;20067;-75
2023/04/02 12:54:27;;;;;;;1.13;0.82;;;16.70;92.00;;;;;;4897372;29;20092;-74
2023/04/02 12:56:53;;;;;;;2.45;1.38;;;16.90;93.30;;;;;;4897173;29;20032;-75
2023/04/02 12:59:35;;;;;;;2.03;1.33;;;16.80;93.00;;;;;;4897143;29;20045;-74
2023/04/02 13:02:15;;;;;;;2.25;0.70;;;16.50;93.50;;;;;;4896718;29;20045;-76
2023/04/02 13:04:55;;;;;;;1.83;1.10;;;16.40;92.70;;;;;;4933814;28;20049;-74
2023/04/02 13:07:24;;;;;;;1.27;0.90;;;16.20;92.90;;;;;;4974972;28;20035;-76
2023/04/02 13:09:55;;;;;;;1.23;0.85;;;16.20;92.40;;;;;;4976209;28;20022;-75
2023/04/02 13:12:35;;;;;;;1.63;1.00;;;16.30;92.90;;;;;;4975206;28;20054;-75
2023/04/02 13:15:07;;;;;;;1.13;0.95;;;16.30;92.40;;;;;;4975479;28;20130;-73
2023/04/02 13:17:49;;;;;;;2.97;1.00;;;16.30;92.90;;;;;;4975249;28;20030;-74
2023/04/02 13:20:40;;;;;;;1.67;1.00;;;16.60;92.20;;;;;;4974874;28;20031;-72
2023/04/02 13:23:30;;;;;;;3.83;1.30;;;16.70;92.70;;;;;;4975116;28;20269;-74
2023/04/02 13:26:07;;;;;;;2.28;1.23;;;17.10;93.50;;;;;;4962763;28;20018;-74
2023/04/02 13:28:33;;;;;;;1.48;0.90;;;17.30;91.60;;;;;;4974715;28;20034;-75